createdAt,value
2023-05-15T00:01:34.037Z,14.57
2023-05-15T00:04:37.976Z,14.54
2023-05-15T00:07:41.929Z,14.51
2023-05-15T00:10:54.106Z,14.53
2023-05-15T00:14:03.121Z,14.58
2023-05-15T00:17:06.133Z,14.55
2023-05-15T00:20:11.431Z,14.51
2023-05-15T00:23:14.032Z,14.51
2023-05-15T00:26:16.631Z,14.60
2023-05-15T00:29:19.256Z,14.52
2023-05-15T00:32:21.959Z,14.43
2023-05-15T00:35:26.292Z,14.49
2023-05-15T00:38:29.010Z,14.37
2023-05-15T00:41:33.044Z,14.32
2023-05-15T00:44:37.047Z,14.34
2023-05-15T00:47:41.380Z,14.47
2023-05-15T00:50:45.680Z,14.36
2023-05-15T00:53:48.515Z,14.38
2023-05-15T00:56:52.510Z,14.33
2023-05-15T00:59:57.727Z,14.27
2023-05-15T01:03:00.650Z,14.29
2023-05-15T01:06:05.113Z,14.24
2023-05-15T01:09:08.690Z,14.25
2023-05-15T01:12:15.781Z,14.16
2023-05-15T01:15:18.554Z,14.18
2023-05-15T01:18:21.525Z,14.25
2023-05-15T01:21:46.835Z,14.17
2023-05-15T01:25:28.576Z,14.17
2023-05-15T01:28:39.239Z,14.21
2023-05-15T01:31:45.072Z,14.22
2023-05-15T01:34:58.374Z,14.14
2023-05-15T01:38:09.632Z,14.10
2023-05-15T01:41:22.211Z,13.98
2023-05-15T01:44:29.787Z,13.93
2023-05-15T01:47:37.873Z,13.88
2023-05-15T01:50:41.900Z,13.85
2023-05-15T01:53:46.464Z,13.90
2023-05-15T01:56:49.353Z,13.87
2023-05-15T01:59:54.585Z,13.84
2023-05-15T02:02:58.697Z,13.78
2023-05-15T02:06:02.592Z,13.69
2023-05-15T02:09:05.818Z,13.56
2023-05-15T02:12:09.346Z,13.58
2023-05-15T02:15:14.366Z,13.49
2023-05-15T02:18:17.243Z,13.37
2023-05-15T02:21:19.827Z,13.41
2023-05-15T02:24:22.426Z,13.41
2023-05-15T02:27:28.903Z,13.43
2023-05-15T02:30:39.496Z,13.26
2023-05-15T02:33:51.775Z,13.26
2023-05-15T02:36:58.942Z,13.35
2023-05-15T02:40:02.736Z,13.24
2023-05-15T02:43:06.467Z,13.24
2023-05-15T02:46:11.634Z,13.26
2023-05-15T02:49:15.175Z,13.19
2023-05-15T02:52:17.989Z,13.13
2023-05-15T02:55:20.930Z,13.12
2023-05-15T02:58:23.535Z,13.07
2023-05-15T03:01:27.526Z,13.04
2023-05-15T03:04:30.327Z,13.10
2023-05-15T03:07:33.003Z,13.03
2023-05-15T03:10:35.576Z,13.13
2023-05-15T03:13:38.147Z,13.13
2023-05-15T03:16:42.942Z,13.03
2023-05-15T03:19:45.694Z,13.06
2023-05-15T03:22:48.304Z,13.02
2023-05-15T03:25:50.912Z,12.95
2023-05-15T03:28:53.482Z,12.91
2023-05-15T03:31:57.559Z,12.91
2023-05-15T03:35:00.835Z,13.00
2023-05-15T03:38:03.538Z,12.96
2023-05-15T03:41:06.157Z,12.91
2023-05-15T03:44:08.770Z,12.79
2023-05-15T03:47:12.688Z,12.67
2023-05-15T03:50:15.448Z,12.68
2023-05-15T03:53:18.054Z,12.76
2023-05-15T03:56:21.266Z,12.68
2023-05-15T03:59:23.870Z,12.70
2023-05-15T04:02:28.202Z,12.77
2023-05-15T04:05:30.872Z,12.79
2023-05-15T04:08:33.524Z,12.89
2023-05-15T04:11:36.673Z,12.80
2023-05-15T04:14:39.278Z,12.80
2023-05-15T04:17:43.283Z,12.72
2023-05-15T04:20:45.939Z,12.67
2023-05-15T04:23:48.552Z,12.67
2023-05-15T04:26:51.209Z,12.75
2023-05-15T04:29:53.822Z,12.75
2023-05-15T04:32:57.925Z,12.72
2023-05-15T04:36:00.679Z,12.70
2023-05-15T04:39:03.374Z,12.72
2023-05-15T04:42:06.659Z,12.73
2023-05-15T04:45:10.268Z,12.77
2023-05-15T04:48:14.228Z,12.86
2023-05-15T04:51:16.881Z,12.87
2023-05-15T04:54:19.538Z,12.88
2023-05-15T04:57:22.461Z,13.01
2023-05-15T05:00:25.245Z,13.02
2023-05-15T05:03:29.319Z,13.07
2023-05-15T05:06:31.996Z,13.11
2023-05-15T05:09:35.174Z,13.17
2023-05-15T05:12:37.772Z,13.26
2023-05-15T05:15:40.418Z,13.43
2023-05-15T05:18:44.448Z,13.47
2023-05-15T05:21:47.076Z,13.61
2023-05-15T05:24:49.673Z,13.74
2023-05-15T05:27:52.338Z,13.88
2023-05-15T05:30:54.960Z,13.95
2023-05-15T05:33:58.882Z,13.97
2023-05-15T05:37:01.528Z,14.09
2023-05-15T05:40:06.572Z,14.30
2023-05-15T05:43:09.222Z,14.45
2023-05-15T05:46:11.909Z,14.58
2023-05-15T05:49:15.861Z,14.72
2023-05-15T05:52:18.428Z,14.90
2023-05-15T05:55:21.094Z,15.00
2023-05-15T05:58:26.097Z,15.14
2023-05-15T06:01:29.128Z,14.97
2023-05-15T06:04:34.181Z,15.03
2023-05-15T06:07:37.078Z,15.48
2023-05-15T06:10:39.923Z,15.26
2023-05-15T06:13:43.388Z,15.65
2023-05-15T06:16:46.054Z,15.90
2023-05-15T06:19:50.020Z,16.16
2023-05-15T06:22:52.612Z,16.43
2023-05-15T06:25:55.363Z,16.58
2023-05-15T06:28:57.960Z,16.26
2023-05-15T06:32:00.544Z,16.34
2023-05-15T06:35:04.855Z,16.54
2023-05-15T06:38:07.465Z,16.62
2023-05-15T06:41:10.120Z,16.90
2023-05-15T06:44:12.704Z,17.17
2023-05-15T06:47:15.305Z,17.35
2023-05-15T06:50:19.245Z,17.62
2023-05-15T06:53:21.943Z,17.63
2023-05-15T06:56:25.599Z,17.68
2023-05-15T06:59:28.315Z,17.93
2023-05-15T07:02:31.029Z,18.04
2023-05-15T07:05:34.967Z,18.13
2023-05-15T07:08:37.576Z,18.34
2023-05-15T07:11:42.118Z,18.51
2023-05-15T07:14:44.748Z,18.73
2023-05-15T07:17:47.389Z,18.83
2023-05-15T07:20:51.325Z,18.86
2023-05-15T07:23:53.927Z,19.01
2023-05-15T07:26:58.800Z,19.24
2023-05-15T07:30:03.373Z,19.09
2023-05-15T07:33:06.112Z,19.30
2023-05-15T07:36:10.533Z,19.50
2023-05-15T07:39:13.257Z,19.66
2023-05-15T07:42:16.018Z,19.64
2023-05-15T07:45:18.681Z,19.74
2023-05-15T07:48:21.662Z,20.02
2023-05-15T07:51:25.627Z,19.84
2023-05-15T07:54:30.000Z,19.86
2023-05-15T07:57:32.796Z,20.10
2023-05-15T08:00:35.406Z,20.35
2023-05-15T08:03:38.041Z,20.62
2023-05-15T08:06:42.775Z,20.73
2023-05-15T08:09:47.087Z,20.98
2023-05-15T08:12:50.580Z,21.15
2023-05-15T08:15:53.209Z,20.95
2023-05-15T08:19:01.048Z,21.37
2023-05-15T08:22:05.347Z,21.45
2023-05-15T08:25:09.109Z,21.39
2023-05-15T08:28:11.834Z,21.68
2023-05-15T08:31:14.550Z,21.67
2023-05-15T08:34:17.166Z,21.85
2023-05-15T08:37:21.153Z,21.94
2023-05-15T08:40:38.484Z,21.60
2023-05-15T08:43:43.929Z,21.66
2023-05-15T08:46:48.454Z,21.91
2023-05-15T08:50:00.524Z,21.65
2023-05-15T08:53:05.253Z,22.25
2023-05-15T08:56:08.168Z,22.45
2023-05-15T08:59:11.332Z,22.71
2023-05-15T09:02:14.145Z,22.71
2023-05-15T09:05:16.751Z,22.53
2023-05-15T09:08:23.612Z,23.01
2023-05-15T09:11:27.891Z,23.29
2023-05-15T09:14:30.648Z,23.41
2023-05-15T09:17:33.317Z,23.73
2023-05-15T09:20:37.634Z,23.73
2023-05-15T09:23:41.669Z,23.64
2023-05-15T09:26:44.453Z,22.91
2023-05-15T09:29:47.507Z,23.01
2023-05-15T09:32:51.596Z,22.61
2023-05-15T09:35:54.210Z,22.95
2023-05-15T09:39:01.979Z,22.85
2023-05-15T09:42:08.425Z,22.61
2023-05-15T09:45:18.739Z,23.20
2023-05-15T09:48:22.033Z,23.28
2023-05-15T09:51:24.950Z,23.79
2023-05-15T09:54:29.949Z,23.87
2023-05-15T09:57:32.790Z,24.23
2023-05-15T10:00:35.777Z,24.96
2023-05-15T10:03:38.416Z,24.78
2023-05-15T10:06:43.422Z,24.54
2023-05-15T10:09:47.523Z,24.46
2023-05-15T10:12:52.147Z,24.10
2023-05-15T10:15:56.205Z,24.71
2023-05-15T10:18:59.719Z,25.00
2023-05-15T10:22:03.185Z,25.12
2023-05-15T10:25:14.313Z,25.26
2023-05-15T10:43:54.859Z,26.18
2023-05-15T10:46:57.609Z,26.39
2023-05-15T10:50:00.476Z,26.46
2023-05-15T10:53:03.162Z,25.72
2023-05-15T10:56:06.485Z,26.34
2023-05-15T10:59:12.342Z,26.42
2023-05-15T11:02:23.165Z,26.59
2023-05-15T11:05:26.541Z,27.67
2023-05-15T11:08:29.733Z,27.76
2023-05-15T11:12:06.614Z,29.18
2023-05-15T11:15:23.160Z,28.21
2023-05-15T11:18:26.776Z,27.67
2023-05-15T11:21:33.270Z,26.74
2023-05-15T11:24:50.853Z,26.01
2023-05-15T11:27:56.269Z,25.96
2023-05-15T11:31:07.157Z,25.31
2023-05-15T11:34:09.841Z,24.93
2023-05-15T11:37:18.435Z,24.82
2023-05-15T11:40:23.499Z,24.42
2023-05-15T11:43:27.458Z,24.48
2023-05-15T11:46:33.990Z,24.22
2023-05-15T11:49:36.639Z,24.15
2023-05-15T11:52:40.085Z,24.23
2023-05-15T11:55:44.121Z,24.29
2023-05-15T11:58:49.757Z,24.99
2023-05-15T12:01:53.850Z,24.71
2023-05-15T12:04:56.465Z,24.33
2023-05-15T12:07:59.417Z,23.88
2023-05-15T12:11:02.886Z,23.95
2023-05-15T12:14:05.562Z,23.63
2023-05-15T12:17:09.539Z,23.40
2023-05-15T12:20:15.936Z,23.11
2023-05-15T12:23:21.607Z,23.33
2023-05-15T12:26:26.346Z,23.20
2023-05-15T12:29:29.550Z,23.23
2023-05-15T12:32:36.019Z,23.43
2023-05-15T12:35:43.884Z,23.26
2023-05-15T12:38:46.553Z,23.08
2023-05-15T12:41:49.933Z,23.13
2023-05-15T12:44:53.217Z,23.41
2023-05-15T12:47:59.704Z,24.27
2023-05-15T12:51:07.133Z,25.01
2023-05-15T12:54:19.083Z,25.29
2023-05-15T12:57:22.124Z,25.19
2023-05-15T13:00:25.460Z,24.98
2023-05-15T13:03:30.529Z,24.38
2023-05-15T13:06:44.965Z,24.02
2023-05-15T13:10:03.286Z,23.84
2023-05-15T13:13:06.007Z,23.76
2023-05-15T13:16:18.916Z,23.52
2023-05-15T13:19:22.916Z,23.24
2023-05-15T13:22:26.672Z,22.85
2023-05-15T13:25:32.120Z,23.06
2023-05-15T13:28:35.419Z,23.21
2023-05-15T13:31:38.086Z,23.48
2023-05-15T13:34:42.030Z,23.72
2023-05-15T13:37:44.722Z,23.39
2023-05-15T13:40:47.312Z,23.00
2023-05-15T13:43:49.984Z,22.65
2023-05-15T13:46:52.677Z,22.33
2023-05-15T13:49:56.640Z,22.33
2023-05-15T13:52:59.260Z,22.40
2023-05-15T13:56:01.986Z,22.39
2023-05-15T13:59:04.621Z,22.33
2023-05-15T14:02:07.282Z,22.34
2023-05-15T14:05:12.244Z,22.10
2023-05-15T14:08:15.716Z,22.27
2023-05-15T14:11:18.320Z,22.12
2023-05-15T14:14:21.000Z,22.02
2023-05-15T14:17:23.673Z,21.78
2023-05-15T14:20:27.861Z,21.86
2023-05-15T14:23:30.711Z,22.14
2023-05-15T14:26:33.381Z,21.96
2023-05-15T14:29:36.125Z,21.98
2023-05-15T14:32:38.854Z,22.14
2023-05-15T14:35:42.806Z,22.21
2023-05-15T14:38:47.822Z,22.26
2023-05-15T14:41:50.480Z,22.21
2023-05-15T14:44:53.058Z,22.14
2023-05-15T14:47:55.834Z,22.24
2023-05-15T14:51:01.053Z,21.89
2023-05-15T14:54:04.897Z,22.04
2023-05-15T14:57:07.993Z,22.23
2023-05-15T15:00:13.266Z,22.29
2023-05-15T15:03:16.034Z,22.09
2023-05-15T15:06:20.069Z,22.20
2023-05-15T15:09:22.671Z,22.15
2023-05-15T15:12:26.181Z,22.23
2023-05-15T15:15:29.006Z,22.17
2023-05-15T15:18:31.762Z,22.04
2023-05-15T15:21:36.823Z,21.85
2023-05-15T15:24:39.425Z,21.99
2023-05-15T15:27:42.036Z,22.09
2023-05-15T15:30:44.607Z,22.26
2023-05-15T15:33:47.181Z,21.88
2023-05-15T15:36:51.331Z,22.04
2023-05-15T15:39:54.147Z,21.97
2023-05-15T15:42:56.819Z,21.79
2023-05-15T15:45:59.448Z,21.63
2023-05-15T15:49:03.755Z,21.87
2023-05-15T15:52:08.546Z,21.60
2023-05-15T15:55:11.288Z,21.63
2023-05-15T15:58:13.903Z,21.43
2023-05-15T16:01:16.629Z,21.51
2023-05-15T16:04:19.257Z,21.33
2023-05-15T16:07:23.172Z,21.20
2023-05-15T16:10:25.832Z,21.07
2023-05-15T16:13:28.438Z,21.06
2023-05-15T16:16:31.469Z,20.73
2023-05-15T16:19:34.950Z,20.78
2023-05-15T16:22:41.443Z,20.82
2023-05-15T16:25:45.244Z,20.87
2023-05-15T16:28:47.848Z,20.56
2023-05-15T16:31:50.945Z,20.63
2023-05-15T16:34:53.586Z,20.69
2023-05-15T16:37:57.537Z,20.40
2023-05-15T16:41:00.098Z,20.39
2023-05-15T16:44:03.248Z,20.43
2023-05-15T16:47:06.226Z,20.39
2023-05-15T16:50:09.535Z,20.31
2023-05-15T16:53:14.873Z,20.01
2023-05-15T16:56:17.504Z,19.85
2023-05-15T16:59:20.089Z,19.67
2023-05-15T17:02:22.850Z,19.81
2023-05-15T17:05:25.534Z,19.88
2023-05-15T17:08:29.545Z,20.06
2023-05-15T17:11:32.152Z,19.97
2023-05-15T17:14:34.744Z,19.83
2023-05-15T17:17:37.389Z,19.77
2023-05-15T17:20:40.043Z,19.97
2023-05-15T17:23:43.965Z,19.81
2023-05-15T17:26:46.593Z,19.88
2023-05-15T17:29:49.429Z,19.55
2023-05-15T17:32:52.530Z,19.44
2023-05-15T17:35:55.162Z,19.56
2023-05-15T17:38:59.365Z,19.34
2023-05-15T17:42:03.044Z,19.34
2023-05-15T17:45:06.376Z,19.19
2023-05-15T17:48:09.090Z,19.04
2023-05-15T17:51:11.768Z,19.01
2023-05-15T17:54:15.744Z,18.92
2023-05-15T17:57:18.363Z,18.85
2023-05-15T18:00:21.324Z,18.98
2023-05-15T18:03:24.389Z,18.82
2023-05-15T18:06:28.145Z,18.42
2023-05-15T18:09:32.142Z,18.30
2023-05-15T18:12:35.195Z,18.16
2023-05-15T18:15:37.944Z,18.27
2023-05-15T18:18:40.650Z,18.39
2023-05-15T18:21:43.578Z,18.22
2023-05-15T18:24:47.669Z,17.95
2023-05-15T18:27:50.594Z,17.94
2023-05-15T18:30:53.382Z,17.63
2023-05-15T18:33:55.993Z,17.76
2023-05-15T18:36:59.292Z,17.71
2023-05-15T18:40:03.329Z,17.61
2023-05-15T18:43:06.280Z,17.57
2023-05-15T18:46:08.851Z,17.14
2023-05-15T18:49:11.487Z,17.27
2023-05-15T18:52:14.116Z,17.17
2023-05-15T18:55:19.228Z,17.01
2023-05-15T18:58:21.906Z,16.77
2023-05-15T19:01:24.560Z,16.94
2023-05-15T19:04:27.176Z,16.37
2023-05-15T19:07:29.859Z,16.56
2023-05-15T19:10:33.779Z,16.35
2023-05-15T19:13:36.568Z,16.43
2023-05-15T19:16:39.164Z,16.27
2023-05-15T19:19:41.853Z,16.34
2023-05-15T19:22:44.470Z,16.29
2023-05-15T19:25:48.452Z,16.04
2023-05-15T19:28:52.703Z,15.80
2023-05-15T19:31:55.381Z,15.75
2023-05-15T19:34:58.033Z,15.27
2023-05-15T19:38:00.615Z,15.16
2023-05-15T19:41:04.740Z,14.81
2023-05-15T19:44:08.185Z,14.55
2023-05-15T19:47:10.769Z,14.82
2023-05-15T19:50:13.881Z,15.22
2023-05-15T19:53:16.505Z,15.31
2023-05-15T19:56:21.427Z,15.09
2023-05-15T19:59:24.019Z,15.02
2023-05-15T20:02:26.656Z,14.78
2023-05-15T20:05:29.437Z,14.74
2023-05-15T20:08:32.126Z,14.79
2023-05-15T20:11:36.088Z,14.40
2023-05-15T20:14:38.684Z,14.40
2023-05-15T20:17:41.451Z,14.50
2023-05-15T20:20:44.695Z,14.47
2023-05-15T20:23:49.053Z,14.47
2023-05-15T20:26:53.019Z,13.92
2023-05-15T20:29:55.601Z,13.81
2023-05-15T20:32:58.268Z,13.92
2023-05-15T20:36:00.944Z,13.98
2023-05-15T20:39:07.067Z,14.07
2023-05-15T20:42:11.116Z,14.32
2023-05-15T20:45:13.802Z,14.22
2023-05-15T20:48:16.403Z,13.97
2023-05-15T20:51:19.034Z,14.01
2023-05-15T20:54:21.618Z,13.71
2023-05-15T20:57:25.637Z,13.30
2023-05-15T21:00:28.463Z,13.76
2023-05-15T21:03:31.400Z,13.73
2023-05-15T21:06:34.160Z,13.69
2023-05-15T21:09:36.853Z,13.80
2023-05-15T21:12:40.885Z,13.38
2023-05-15T21:15:43.499Z,13.43
2023-05-15T21:18:46.205Z,13.64
2023-05-15T21:21:48.893Z,13.70
2023-05-15T21:24:51.559Z,13.33
2023-05-15T21:27:55.588Z,13.45
2023-05-15T21:30:58.349Z,13.63
2023-05-15T21:34:00.986Z,13.54
2023-05-15T21:37:03.699Z,13.62
2023-05-15T21:40:07.144Z,13.12
2023-05-15T21:43:11.500Z,13.08
2023-05-15T21:46:14.136Z,13.42
2023-05-15T21:49:16.762Z,12.89
2023-05-15T21:52:19.362Z,12.86
2023-05-15T21:55:21.956Z,12.70
2023-05-15T21:58:25.931Z,12.63
2023-05-15T22:01:28.644Z,12.96
2023-05-15T22:04:31.323Z,12.96
2023-05-15T22:07:33.905Z,13.04
2023-05-15T22:10:36.653Z,13.00
2023-05-15T22:13:40.743Z,12.75
2023-05-15T22:16:43.365Z,12.92
2023-05-15T22:19:46.216Z,12.71
2023-05-15T22:22:48.911Z,12.94
2023-05-15T22:25:51.486Z,12.75
2023-05-15T22:28:56.566Z,12.54
2023-05-15T22:31:59.248Z,12.47
2023-05-15T22:35:02.140Z,12.31
2023-05-15T22:38:06.860Z,12.60
2023-05-15T22:41:09.724Z,12.59
2023-05-15T22:44:13.857Z,12.59
2023-05-15T22:47:16.506Z,12.58
2023-05-15T22:50:19.126Z,12.52
2023-05-15T22:53:21.744Z,12.26
2023-05-15T22:56:24.314Z,12.43
2023-05-15T22:59:28.339Z,12.54
2023-05-15T23:02:31.003Z,12.34
2023-05-15T23:05:33.700Z,12.63
2023-05-15T23:08:36.314Z,12.63
2023-05-15T23:11:39.164Z,12.58
2023-05-15T23:14:43.101Z,12.65
2023-05-15T23:17:45.920Z,12.39
2023-05-15T23:20:48.552Z,12.22
2023-05-15T23:23:51.517Z,12.04
2023-05-15T23:26:54.096Z,12.52
2023-05-15T23:29:58.077Z,12.48
2023-05-15T23:33:00.838Z,12.36
2023-05-15T23:36:03.566Z,12.43
2023-05-15T23:39:06.166Z,12.64
2023-05-15T23:42:09.934Z,12.22
2023-05-15T23:45:14.992Z,12.30
2023-05-15T23:48:17.842Z,12.41
2023-05-15T23:51:21.119Z,12.57
2023-05-15T23:54:23.727Z,12.56
2023-05-15T23:57:26.518Z,12.75
